Clarksville, OH (45113)

2:31 AM EDT on July 08, 2015 (GMT -0400)
Clarksville, OH - Clinton Co. | | Change Station
CLOSE
Current Station
Personal Weather Station
Location: Clarksville, OH
Elevation: 928 ft
Nearby Weather Stations

Elev 928 ft 39.38 °N, 83.98 °W | Updated 26 seconds ago

Overcast
Overcast
67.5 °F
Feels Like 67.5 °F
N
0.2
Wind Variable Wind from NW
Gusts 2.5 mph

Today
High -- | Low -- °F
--% Chance of Precip.
Yesterday
High -- | Low -- °F
Precip. -- in
6:16 AM 9:05 PM
Waning Gibbous, 57% visible
Pressure 30.01 in
Visibility 10.0 miles
Clouds Overcast 600 ft
Dew Point 55 °F
Humidity 65%
Rainfall 0.00 in
Snow Depth Not available.
UV 0 out of 12
Pollen 2.00 out of 12
Air Quality Not available.
Flu Activity Not available.
METAR KILN 080554Z AUTO 30004KT 10SM OVC006 21/18 A3003 RMK AO2 SLP160 60008 T02060183 10228 20206 51015

More Conditions Fewer Conditions

Pressure 30.01 in
Visibility 10.0 miles
Clouds Overcast 600 ft
Dew Point 55 °F
Humidity 65%
Rainfall 0.00 in
Snow Depth Not available.
UV 0 out of 12
Pollen 2.00 out of 12
Air Quality Not available.
Flu Activity Not available.
METAR KILN 080554Z AUTO 30004KT 10SM OVC006 21/18 A3003 RMK AO2 SLP160 60008 T02060183 10228 20206 51015

More Conditions Fewer Conditions

10-Day Weather Forecast

×

Almanac

Astronomy

Jul. 08, 2015 Rise Set
Actual Time
Civil Twilight
Nautical Twilight
Astronomical Twilight
Moon
Length of Visible Light
Length of Day
Tomorrow will be .
, % of the Moon is Illuminated

Today's Extremes

State Highs State Lows

Community

WunderPhotos

Upload Photos

1,836,064 photos uploaded!

WunderBlogs® & News

Nearby

Air Quality

  Air Quality AQ Index Pollutant
Not available.

Snow Depth

Station Depth Elevation

Earthquake Activity

City Distance Mag. Time & Date
Minimum magnitude displayed is 2.5.

Coastal Water Temperatures

Place Temperature

Stations

Nearby Weather Stations

Station Location Temp. Windchill Dew Point Humidity Wind Precip. Elev Updated Type